sensor_id;sensor_type;location;lat;lon;timestamp;P1;durP1;ratioP1;P2;durP2;ratioP2
38190;SDS011;25191;47.510;19.124;2023-04-06T00:04:25;431.45;;;389.23;;
38190;SDS011;25191;47.510;19.124;2023-04-06T00:14:26;420.10;;;378.90;;
38190;SDS011;25191;47.510;19.124;2023-04-06T00:24:27;429.77;;;387.80;;
38190;SDS011;25191;47.510;19.124;2023-04-06T00:34:27;430.55;;;388.25;;
38190;SDS011;25191;47.510;19.124;2023-04-06T00:44:29;445.60;;;402.02;;
38190;SDS011;25191;47.510;19.124;2023-04-06T00:54:29;495.52;;;448.30;;
38190;SDS011;25191;47.510;19.124;2023-04-06T01:04:31;496.13;;;449.02;;
38190;SDS011;25191;47.510;19.124;2023-04-06T01:14:32;494.13;;;447.02;;
38190;SDS011;25191;47.510;19.124;2023-04-06T01:24:34;526.15;;;476.77;;
38190;SDS011;25191;47.510;19.124;2023-04-06T01:34:40;552.00;;;501.05;;
38190;SDS011;25191;47.510;19.124;2023-04-06T01:44:41;558.63;;;507.23;;
38190;SDS011;25191;47.510;19.124;2023-04-06T01:54:43;527.67;;;478.27;;
38190;SDS011;25191;47.510;19.124;2023-04-06T02:04:43;560.95;;;509.20;;
38190;SDS011;25191;47.510;19.124;2023-04-06T02:14:43;587.17;;;533.78;;
38190;SDS011;25191;47.510;19.124;2023-04-06T02:24:45;587.17;;;533.72;;
38190;SDS011;25191;47.510;19.124;2023-04-06T02:34:46;608.00;;;553.03;;
38190;SDS011;25191;47.510;19.124;2023-04-06T02:44:47;599.33;;;545.08;;
38190;SDS011;25191;47.510;19.124;2023-04-06T02:54:48;659.40;;;601.00;;
38190;SDS011;25191;47.510;19.124;2023-04-06T03:04:51;701.17;;;639.83;;
38190;SDS011;25191;47.510;19.124;2023-04-06T03:14:52;649.55;;;591.80;;
38190;SDS011;25191;47.510;19.124;2023-04-06T03:24:52;677.40;;;617.67;;
38190;SDS011;25191;47.510;19.124;2023-04-06T03:34:57;767.55;;;701.55;;
38190;SDS011;25191;47.510;19.124;2023-04-06T03:44:58;755.38;;;690.03;;
38190;SDS011;25191;47.510;19.124;2023-04-06T03:54:58;795.45;;;727.60;;
38190;SDS011;25191;47.510;19.124;2023-04-06T04:04:59;755.47;;;690.28;;
38190;SDS011;25191;47.510;19.124;2023-04-06T04:14:59;761.92;;;696.40;;
38190;SDS011;25191;47.510;19.124;2023-04-06T04:25:00;776.58;;;709.67;;
38190;SDS011;25191;47.510;19.124;2023-04-06T04:35:00;791.92;;;723.92;;
38190;SDS011;25191;47.510;19.124;2023-04-06T04:45:01;894.70;;;819.90;;
38190;SDS011;25191;47.510;19.124;2023-04-06T04:55:03;871.05;;;797.70;;
38190;SDS011;25191;47.510;19.124;2023-04-06T05:05:03;858.10;;;785.78;;
38190;SDS011;25191;47.510;19.124;2023-04-06T05:15:04;821.83;;;751.88;;
38190;SDS011;25191;47.510;19.124;2023-04-06T05:25:06;780.58;;;713.30;;
38190;SDS011;25191;47.510;19.124;2023-04-06T05:35:07;779.90;;;712.70;;
38190;SDS011;25191;47.510;19.124;2023-04-06T05:45:09;773.20;;;706.40;;
38190;SDS011;25191;47.510;19.124;2023-04-06T05:55:11;703.17;;;641.33;;
38190;SDS011;25191;47.510;19.124;2023-04-06T06:05:11;705.70;;;643.38;;
38190;SDS011;25191;47.510;19.124;2023-04-06T06:15:12;678.67;;;618.17;;
38190;SDS011;25191;47.510;19.124;2023-04-06T06:25:13;661.67;;;602.35;;
38190;SDS011;25191;47.510;19.124;2023-04-06T06:35:20;676.85;;;616.45;;
38190;SDS011;25191;47.510;19.124;2023-04-06T06:45:20;690.90;;;629.53;;
38190;SDS011;25191;47.510;19.124;2023-04-06T06:55:22;670.40;;;610.22;;
38190;SDS011;25191;47.510;19.124;2023-04-06T07:05:23;686.08;;;625.00;;
38190;SDS011;25191;47.510;19.124;2023-04-06T07:15:24;708.80;;;645.97;;
38190;SDS011;25191;47.510;19.124;2023-04-06T07:25:25;707.70;;;644.88;;
38190;SDS011;25191;47.510;19.124;2023-04-06T07:35:26;711.80;;;648.63;;
38190;SDS011;25191;47.510;19.124;2023-04-06T07:45:27;716.35;;;653.13;;
38190;SDS011;25191;47.510;19.124;2023-04-06T07:55:27;714.63;;;651.33;;
38190;SDS011;25191;47.510;19.124;2023-04-06T08:05:28;674.33;;;614.00;;
38190;SDS011;25191;47.510;19.124;2023-04-06T08:15:28;683.75;;;622.60;;
38190;SDS011;25191;47.510;19.124;2023-04-06T08:25:29;681.95;;;621.03;;
38190;SDS011;25191;47.510;19.124;2023-04-06T08:35:30;724.30;;;660.30;;
38190;SDS011;25191;47.510;19.124;2023-04-06T08:45:32;728.05;;;663.90;;
38190;SDS011;25191;47.510;19.124;2023-04-06T08:55:33;761.73;;;695.07;;
38190;SDS011;25191;47.510;19.124;2023-04-06T09:05:34;738.75;;;673.60;;
38190;SDS011;25191;47.510;19.124;2023-04-06T09:15:35;766.60;;;699.25;;
38190;SDS011;25191;47.510;19.124;2023-04-06T09:25:35;778.00;;;710.35;;
38190;SDS011;25191;47.510;19.124;2023-04-06T09:35:36;738.97;;;674.05;;
38190;SDS011;25191;47.510;19.124;2023-04-06T09:45:43;718.80;;;655.20;;
38190;SDS011;25191;47.510;19.124;2023-04-06T09:55:44;746.00;;;680.42;;
38190;SDS011;25191;47.510;19.124;2023-04-06T10:05:46;732.43;;;667.80;;
38190;SDS011;25191;47.510;19.124;2023-04-06T10:15:59;681.90;;;621.08;;
38190;SDS011;25191;47.510;19.124;2023-04-06T10:26:03;711.92;;;648.80;;
38190;SDS011;25191;47.510;19.124;2023-04-06T10:46:37;659.63;;;600.28;;
38190;SDS011;25191;47.510;19.124;2023-04-06T10:56:37;680.67;;;619.70;;
38190;SDS011;25191;47.510;19.124;2023-04-06T11:06:40;700.05;;;637.90;;
38190;SDS011;25191;47.510;19.124;2023-04-06T11:16:40;665.92;;;606.20;;
38190;SDS011;25191;47.510;19.124;2023-04-06T11:26:42;677.65;;;616.95;;
38190;SDS011;25191;47.510;19.124;2023-04-06T11:36:49;670.35;;;610.22;;
38190;SDS011;25191;47.510;19.124;2023-04-06T11:46:56;703.30;;;640.83;;
38190;SDS011;25191;47.510;19.124;2023-04-06T11:56:57;656.60;;;597.30;;
38190;SDS011;25191;47.510;19.124;2023-04-06T12:06:58;652.45;;;593.53;;
38190;SDS011;25191;47.510;19.124;2023-04-06T12:16:59;639.23;;;581.30;;
38190;SDS011;25191;47.510;19.124;2023-04-06T12:27:00;649.13;;;590.63;;
38190;SDS011;25191;47.510;19.124;2023-04-06T12:37:01;624.80;;;567.90;;
38190;SDS011;25191;47.510;19.124;2023-04-06T12:47:01;649.58;;;591.08;;
38190;SDS011;25191;47.510;19.124;2023-04-06T12:57:02;618.60;;;562.30;;
38190;SDS011;25191;47.510;19.124;2023-04-06T13:07:03;615.20;;;559.00;;
38190;SDS011;25191;47.510;19.124;2023-04-06T13:17:03;601.60;;;546.30;;
38190;SDS011;25191;47.510;19.124;2023-04-06T13:27:04;645.85;;;587.75;;
38190;SDS011;25191;47.510;19.124;2023-04-06T13:37:04;668.05;;;608.45;;
38190;SDS011;25191;47.510;19.124;2023-04-06T13:47:05;638.17;;;580.35;;
38190;SDS011;25191;47.510;19.124;2023-04-06T13:57:05;577.85;;;524.33;;
38190;SDS011;25191;47.510;19.124;2023-04-06T14:07:07;653.75;;;595.03;;
38190;SDS011;25191;47.510;19.124;2023-04-06T14:17:08;686.90;;;626.10;;
38190;SDS011;25191;47.510;19.124;2023-04-06T14:27:11;660.63;;;601.63;;
38190;SDS011;25191;47.510;19.124;2023-04-06T14:37:12;657.03;;;598.08;;
38190;SDS011;25191;47.510;19.124;2023-04-06T14:47:14;654.90;;;596.17;;
38190;SDS011;25191;47.510;19.124;2023-04-06T14:57:20;698.97;;;636.95;;
38190;SDS011;25191;47.510;19.124;2023-04-06T15:07:20;681.38;;;620.83;;
38190;SDS011;25191;47.510;19.124;2023-04-06T15:17:20;670.83;;;611.05;;
38190;SDS011;25191;47.510;19.124;2023-04-06T15:27:21;665.30;;;605.90;;
38190;SDS011;25191;47.510;19.124;2023-04-06T15:37:24;639.30;;;581.72;;
38190;SDS011;25191;47.510;19.124;2023-04-06T15:47:25;652.38;;;593.92;;
38190;SDS011;25191;47.510;19.124;2023-04-06T15:57:26;661.53;;;602.42;;
38190;SDS011;25191;47.510;19.124;2023-04-06T16:07:26;659.45;;;599.50;;
38190;SDS011;25191;47.510;19.124;2023-04-06T16:17:26;659.85;;;601.00;;
38190;SDS011;25191;47.510;19.124;2023-04-06T16:27:27;631.45;;;574.35;;
38190;SDS011;25191;47.510;19.124;2023-04-06T16:37:27;670.92;;;610.97;;
38190;SDS011;25191;47.510;19.124;2023-04-06T16:47:30;639.95;;;582.47;;
38190;SDS011;25191;47.510;19.124;2023-04-06T16:57:30;658.40;;;599.42;;
38190;SDS011;25191;47.510;19.124;2023-04-06T17:07:31;629.42;;;572.47;;
38190;SDS011;25191;47.510;19.124;2023-04-06T17:17:33;727.67;;;663.40;;
38190;SDS011;25191;47.510;19.124;2023-04-06T17:27:33;697.47;;;635.30;;
38190;SDS011;25191;47.510;19.124;2023-04-06T17:37:34;676.22;;;615.47;;
38190;SDS011;25191;47.510;19.124;2023-04-06T17:47:35;667.42;;;607.20;;
38190;SDS011;25191;47.510;19.124;2023-04-06T17:57:35;695.92;;;634.03;;
38190;SDS011;25191;47.510;19.124;2023-04-06T18:07:36;679.72;;;618.72;;
38190;SDS011;25191;47.510;19.124;2023-04-06T18:17:36;689.40;;;627.78;;
38190;SDS011;25191;47.510;19.124;2023-04-06T18:27:37;695.00;;;633.00;;
38190;SDS011;25191;47.510;19.124;2023-04-06T18:37:37;738.30;;;673.10;;
38190;SDS011;25191;47.510;19.124;2023-04-06T18:47:38;722.88;;;658.92;;
38190;SDS011;25191;47.510;19.124;2023-04-06T18:57:38;690.67;;;629.10;;
38190;SDS011;25191;47.510;19.124;2023-04-06T19:07:39;719.42;;;655.97;;
38190;SDS011;25191;47.510;19.124;2023-04-06T19:17:41;755.37;;;689.37;;
38190;SDS011;25191;47.510;19.124;2023-04-06T19:27:42;723.22;;;659.65;;
38190;SDS011;25191;47.510;19.124;2023-04-06T19:37:43;749.50;;;683.97;;
38190;SDS011;25191;47.510;19.124;2023-04-06T19:47:44;738.50;;;673.92;;
38190;SDS011;25191;47.510;19.124;2023-04-06T19:57:44;738.85;;;674.25;;
38190;SDS011;25191;47.510;19.124;2023-04-06T20:07:44;772.40;;;705.55;;
38190;SDS011;25191;47.510;19.124;2023-04-06T20:17:46;782.72;;;715.35;;
38190;SDS011;25191;47.510;19.124;2023-04-06T20:27:46;756.92;;;691.30;;
38190;SDS011;25191;47.510;19.124;2023-04-06T20:37:47;767.40;;;701.00;;
38190;SDS011;25191;47.510;19.124;2023-04-06T20:47:50;741.88;;;677.17;;
38190;SDS011;25191;47.510;19.124;2023-04-06T20:57:51;750.25;;;685.03;;
38190;SDS011;25191;47.510;19.124;2023-04-06T21:07:51;774.67;;;707.78;;
38190;SDS011;25191;47.510;19.124;2023-04-06T21:17:52;776.72;;;709.80;;
38190;SDS011;25191;47.510;19.124;2023-04-06T21:27:52;787.78;;;720.15;;
38190;SDS011;25191;47.510;19.124;2023-04-06T21:37:55;802.65;;;733.75;;
38190;SDS011;25191;47.510;19.124;2023-04-06T21:57:59;808.58;;;739.60;;
38190;SDS011;25191;47.510;19.124;2023-04-06T22:08:00;828.65;;;758.28;;
38190;SDS011;25191;47.510;19.124;2023-04-06T22:18:01;886.05;;;812.05;;
38190;SDS011;25191;47.510;19.124;2023-04-06T22:28:01;854.50;;;782.50;;
38190;SDS011;25191;47.510;19.124;2023-04-06T22:38:09;880.17;;;806.65;;
38190;SDS011;25191;47.510;19.124;2023-04-06T22:48:09;868.63;;;795.60;;
38190;SDS011;25191;47.510;19.124;2023-04-06T22:58:12;857.90;;;785.63;;
38190;SDS011;25191;47.510;19.124;2023-04-06T23:08:13;879.55;;;805.78;;
38190;SDS011;25191;47.510;19.124;2023-04-06T23:18:13;890.35;;;816.13;;
38190;SDS011;25191;47.510;19.124;2023-04-06T23:28:13;892.70;;;818.30;;
38190;SDS011;25191;47.510;19.124;2023-04-06T23:38:14;873.08;;;799.83;;
38190;SDS011;25191;47.510;19.124;2023-04-06T23:48:15;883.88;;;810.10;;
38190;SDS011;25191;47.510;19.124;2023-04-06T23:58:15;882.85;;;809.17;;
